Time;durP1;ratioP1;P1;durP2;ratioP2;P2;SDS_P1;SDS_P2;PMS_P1;PMS_P2;Temp;Humidity;BMP_temperature;BMP_pressure;BME280_temperature;BME280_humidity;BME280_pressure;Samples;Min_cycle;Max_cycle;Signal;HPM_P1;HPM_P2
2023/04/01 00:02:02;;;;;;;;;;;;;;;6.77;100.00;94508.22;5013170;28;19928;-75
2023/04/01 00:04:29;;;;;;;;;;;;;;;6.70;100.00;94504.41;5013005;28;20388;-74
2023/04/01 00:06:56;;;;;;;;;;;;;;;6.72;100.00;94498.25;5012890;28;19925;-74
2023/04/01 00:09:23;;;;;;;;;;;;;;;6.68;100.00;94501.13;5012624;28;19922;-74
2023/04/01 00:11:49;;;;;;;;;;;;;;;6.68;100.00;94503.69;5012997;28;19926;-75
2023/04/01 00:14:15;;;;;;;;;;;;;;;6.68;100.00;94496.81;5010507;28;20289;-74
2023/04/01 00:16:41;;;;;;;;;;;;;;;6.73;100.00;94499.88;5012423;28;20398;-74
2023/04/01 00:19:08;;;;;;;;;;;;;;;6.71;100.00;94499.16;5012824;28;19922;-74
2023/04/01 00:21:34;;;;;;;;;;;;;;;6.75;100.00;94499.78;5012347;28;19934;-74
2023/04/01 00:24:02;;;;;;;;;;;;;;;6.81;100.00;94501.09;5012350;28;19932;-74
2023/04/01 00:26:28;;;;;;;;;;;;;;;6.67;100.00;94504.59;5012826;28;19925;-75
2023/04/01 00:28:54;;;;;;;;;;;;;;;6.60;100.00;94503.38;5011605;28;19932;-74
2023/04/01 00:31:21;;;;;;;;;;;;;;;6.55;100.00;94506.25;5012319;28;19975;-74
2023/04/01 00:33:47;;;;;;;;;;;;;;;6.55;100.00;94504.50;5012260;28;19957;-74
2023/04/01 00:36:15;;;;;;;;;;;;;;;6.55;100.00;94507.06;5012420;28;20468;-74
2023/04/01 00:38:42;;;;;;;;;;;;;;;6.48;100.00;94513.56;5012553;28;19922;-75
2023/04/01 00:41:13;;;;;;;;;;;;;;;6.53;100.00;94511.53;5011344;28;19975;-74
2023/04/01 00:43:40;;;;;;;;;;;;;;;6.50;100.00;94514.28;5012375;28;19932;-74
2023/04/01 00:46:07;;;;;;;;;;;;;;;6.48;100.00;94495.56;5012213;28;19921;-74
2023/04/01 00:48:34;;;;;;;;;;;;;;;6.41;100.00;94503.78;5012282;28;19929;-74
2023/04/01 00:51:03;;;;;;;;;;;;;;;6.46;100.00;94507.72;5011790;28;19925;-74
2023/04/01 00:53:30;;;;;;;;;;;;;;;6.44;100.00;94509.53;5012133;28;19955;-74
2023/04/01 00:55:59;;;;;;;;;;;;;;;6.47;100.00;94500.81;5010636;28;19921;-74
2023/04/01 00:58:28;;;;;;;;;;;;;;;6.40;100.00;94502.16;5012086;28;19944;-74
2023/04/01 01:00:55;;;;;;;;;;;;;;;6.42;100.00;94502.88;5011730;28;19925;-74
2023/04/01 01:03:21;;;;;;;;;;;;;;;6.37;100.00;94507.50;5011956;28;20590;-74
2023/04/01 01:05:59;;;;;;;;;;;;;;;6.31;100.00;94503.59;5011900;28;19941;-75
2023/04/01 01:08:32;;;;;;;;;;;;;;;6.42;100.00;94505.44;5011019;28;19963;-74
2023/04/01 01:10:59;;;;;;;;;;;;;;;6.39;100.00;94511.63;5009376;28;19921;-74
2023/04/01 01:13:30;;;;;;;;;;;;;;;6.38;100.00;94503.97;5011804;28;19925;-74
2023/04/01 01:15:58;;;;;;;;;;;;;;;6.48;100.00;94500.69;5011986;28;20288;-74
2023/04/01 01:18:33;;;;;;;;;;;;;;;6.47;100.00;94500.81;5011236;28;19925;-74
2023/04/01 01:21:20;;;;;;;;;;;;;;;6.47;100.00;94503.38;5011091;28;20410;-74
2023/04/01 01:24:04;;;;;;;;;;;;;;;6.47;100.00;94504.19;5011641;28;20269;-74
2023/04/01 01:26:55;;;;;;;;;;;;;;;6.52;100.00;94509.84;5007995;28;19928;-74
2023/04/01 01:29:43;;;;;;;;;;;;;;;6.49;100.00;94511.84;5009852;28;19944;-74
2023/04/01 01:32:16;;;;;;;;;;;;;;;6.51;100.00;94515.94;5009892;28;20277;-74
2023/04/01 01:34:48;;;;;;;;;;;;;;;6.47;100.00;94513.69;5009986;28;19925;-74
2023/04/01 01:37:18;;;;;;;;;;;;;;;6.44;100.00;94508.72;5011393;28;19925;-74
2023/04/01 01:39:45;;;;;;;;;;;;;;;6.45;100.00;94503.50;5011071;28;19932;-74
2023/04/01 01:42:14;;;;;;;;;;;;;;;6.36;100.00;94501.53;5010348;28;19932;-74
2023/04/01 01:44:42;;;;;;;;;;;;;;;6.44;100.00;94504.41;5010008;28;20323;-74
2023/04/01 01:47:09;;;;;;;;;;;;;;;6.42;100.00;94502.88;5011106;28;20660;-74
2023/04/01 01:49:36;;;;;;;;;;;;;;;6.45;100.00;94497.50;5011053;28;19922;-74
2023/04/01 01:52:03;;;;;;;;;;;;;;;6.52;100.00;94503.88;5011502;28;19996;-74
2023/04/01 01:54:31;;;;;;;;;;;;;;;6.46;100.00;94492.28;5011541;28;20406;-74
2023/04/01 01:57:02;;;;;;;;;;;;;;;6.44;100.00;94494.13;5011209;28;19921;-74
2023/04/01 01:59:29;;;;;;;;;;;;;;;6.37;100.00;94499.78;5010967;28;19921;-75
2023/04/01 02:01:56;;;;;;;;;;;;;;;6.34;100.00;94498.25;5011243;28;19922;-75
2023/04/01 02:04:23;;;;;;;;;;;;;;;6.36;100.00;94504.09;5011398;28;20304;-74
2023/04/01 02:06:53;;;;;;;;;;;;;;;6.45;100.00;94497.50;5010481;28;19933;-75
2023/04/01 02:09:20;;;;;;;;;;;;;;;6.40;100.00;94497.81;5011166;28;19921;-74
2023/04/01 02:11:50;;;;;;;;;;;;;;;6.45;100.00;94503.50;5011075;28;19929;-74
2023/04/01 02:14:18;;;;;;;;;;;;;;;6.39;100.00;94503.91;5011340;28;19925;-74
2023/04/01 02:16:47;;;;;;;;;;;;;;;6.43;100.00;94500.19;5010829;28;19933;-74
2023/04/01 02:19:14;;;;;;;;;;;;;;;6.42;100.00;94500.31;5010805;28;19921;-74
2023/04/01 02:21:42;;;;;;;;;;;;;;;6.40;100.00;94494.44;5011055;28;19922;-74
2023/04/01 02:24:10;;;;;;;;;;;;;;;6.38;100.00;94496.28;5011197;28;19928;-74
2023/04/01 02:26:37;;;;;;;;;;;;;;;6.35;100.00;94484.47;5010293;28;20372;-74
2023/04/01 02:29:06;;;;;;;;;;;;;;;6.30;100.00;94492.50;5006316;28;19922;-74
2023/04/01 02:31:32;;;;;;;;;;;;;;;6.33;100.00;94494.00;5011172;28;19932;-74
2023/04/01 02:33:59;;;;;;;;;;;;;;;6.31;100.00;94498.44;5008813;28;19921;-74
2023/04/01 02:36:26;;;;;;;;;;;;;;;6.18;100.00;94493.28;5010993;28;20307;-74
2023/04/01 02:38:54;;;;;;;;;;;;;;;6.23;100.00;94493.81;5010933;28;19933;-74
2023/04/01 02:41:20;;;;;;;;;;;;;;;6.23;100.00;94498.09;5006106;28;20023;-75
2023/04/01 02:43:47;;;;;;;;;;;;;;;6.26;100.00;94493.59;5010822;28;19976;-74
2023/04/01 02:46:14;;;;;;;;;;;;;;;6.22;100.00;94489.56;5011062;28;19922;-74
2023/04/01 02:48:41;;;;;;;;;;;;;;;6.22;100.00;94492.16;5010885;28;19925;-74
2023/04/01 02:51:07;;;;;;;;;;;;;;;6.22;100.00;94504.19;5011363;28;19921;-75
2023/04/01 02:53:33;;;;;;;;;;;;;;;6.14;100.00;94501.28;5014441;28;19921;-74
2023/04/01 02:56:00;;;;;;;;;;;;;;;6.16;100.00;94499.47;5010614;28;19932;-74
2023/04/01 02:58:26;;;;;;;;;;;;;;;6.11;100.00;94501.50;5014436;28;19972;-74
2023/04/01 03:00:52;;;;;;;;;;;;;;;6.22;100.00;94487.00;5014046;28;19926;-74
2023/04/01 03:03:20;;;;;;;;;;;;;;;6.05;100.00;94482.16;5014446;28;19928;-74
2023/04/01 03:05:46;;;;;;;;;;;;;;;6.08;100.00;94489.66;5014120;28;19929;-74
2023/04/01 03:08:12;;;;;;;;;;;;;;;5.99;100.00;94500.56;5014187;28;19929;-75
2023/04/01 03:10:39;;;;;;;;;;;;;;;5.94;100.00;94497.47;5013664;28;19921;-75
2023/04/01 03:13:06;;;;;;;;;;;;;;;5.97;100.00;94494.66;5013855;28;19928;-74
2023/04/01 03:15:32;;;;;;;;;;;;;;;5.93;100.00;94498.38;5013887;28;19925;-74
2023/04/01 03:17:58;;;;;;;;;;;;;;;5.94;100.00;94487.19;5007928;28;20291;-74
2023/04/01 03:20:26;;;;;;;;;;;;;;;5.94;100.00;94493.16;5008102;28;19932;-73
2023/04/01 03:22:52;;;;;;;;;;;;;;;5.86;100.00;94487.66;5013625;28;19932;-74
2023/04/01 03:25:18;;;;;;;;;;;;;;;5.96;100.00;94487.91;5013897;28;19932;-74
2023/04/01 03:27:45;;;;;;;;;;;;;;;5.97;100.00;94485.25;5013809;28;19921;-74
2023/04/01 03:30:11;;;;;;;;;;;;;;;5.91;100.00;94495.88;5013591;28;19929;-74
2023/04/01 03:32:37;;;;;;;;;;;;;;;5.93;100.00;94483.81;5013693;28;19921;-74
2023/04/01 03:35:04;;;;;;;;;;;;;;;5.95;100.00;94496.53;5013470;28;20375;-74
2023/04/01 03:37:32;;;;;;;;;;;;;;;5.88;100.00;94488.38;5013494;28;20323;-75
2023/04/01 03:39:58;;;;;;;;;;;;;;;5.81;100.00;94485.34;5013483;28;19922;-74
2023/04/01 03:42:25;;;;;;;;;;;;;;;5.83;100.00;94493.81;5013463;28;20295;-74
2023/04/01 03:44:51;;;;;;;;;;;;;;;5.86;100.00;94489.38;5013494;28;19929;-74
2023/04/01 03:47:17;;;;;;;;;;;;;;;5.81;100.00;94487.94;5013333;28;19929;-74
2023/04/01 03:49:44;;;;;;;;;;;;;;;5.80;100.00;94480.34;5013121;28;19925;-75
2023/04/01 03:52:11;;;;;;;;;;;;;;;5.83;100.00;94478.41;5013224;28;20292;-74
2023/04/01 03:54:39;;;;;;;;;;;;;;;5.80;100.00;94483.72;5013313;28;19960;-74
2023/04/01 03:57:05;;;;;;;;;;;;;;;5.87;100.00;94476.44;5013310;28;19921;-74
2023/04/01 03:59:32;;;;;;;;;;;;;;;5.87;100.00;94483.34;5011405;28;20273;-74
2023/04/01 04:01:58;;;;;;;;;;;;;;;5.85;100.00;94486.00;5012964;28;19928;-74
2023/04/01 04:04:24;;;;;;;;;;;;;;;5.86;100.00;94476.53;5012987;28;19925;-74
2023/04/01 04:06:51;;;;;;;;;;;;;;;5.84;100.00;94484.34;5012841;28;19929;-74
2023/04/01 04:09:17;;;;;;;;;;;;;;;5.88;100.00;94472.13;5012834;28;19921;-74
2023/04/01 04:11:44;;;;;;;;;;;;;;;5.83;100.00;94475.81;5012984;28;19925;-74
2023/04/01 04:14:11;;;;;;;;;;;;;;;5.78;100.00;94475.31;5012816;28;20376;-74
2023/04/01 04:16:37;;;;;;;;;;;;;;;5.76;100.00;94484.03;5012829;28;20388;-74
2023/04/01 04:19:03;;;;;;;;;;;;;;;5.76;100.00;94484.03;5012577;28;19925;-75
2023/04/01 04:21:30;;;;;;;;;;;;;;;5.74;100.00;94484.09;5012357;28;20361;-74
2023/04/01 04:23:56;;;;;;;;;;;;;;;5.71;100.00;94481.75;5012908;28;19921;-74
2023/04/01 04:26:22;;;;;;;;;;;;;;;5.76;100.00;94489.97;5012798;28;19921;-74
2023/04/01 04:28:50;;;;;;;;;;;;;;;5.71;100.00;94497.16;5012569;28;19960;-74
2023/04/01 04:31:19;;;;;;;;;;;;;;;5.71;100.00;94486.06;5008508;28;19921;-74
2023/04/01 04:33:45;;;;;;;;;;;;;;;5.67;100.00;94492.31;5012639;28;19953;-74
2023/04/01 04:36:11;;;;;;;;;;;;;;;5.69;100.00;94485.34;5012400;28;19933;-74
2023/04/01 04:38:38;;;;;;;;;;;;;;;5.68;100.00;94474.25;5012520;28;19944;-75
2023/04/01 04:41:08;;;;;;;;;;;;;;;5.69;100.00;94475.88;5012227;28;19925;-74
2023/04/01 04:43:35;;;;;;;;;;;;;;;5.75;100.00;94477.25;5012284;28;19940;-74
2023/04/01 04:46:06;;;;;;;;;;;;;;;5.73;100.00;94484.22;5012506;28;19948;-74
2023/04/01 04:48:32;;;;;;;;;;;;;;;5.72;100.00;94469.75;5012141;28;19922;-74
2023/04/01 04:50:58;;;;;;;;;;;;;;;5.75;100.00;94472.09;5012011;28;19921;-74
2023/04/01 04:53:25;;;;;;;;;;;;;;;5.86;100.00;94477.38;5012415;28;19929;-74
2023/04/01 04:55:52;;;;;;;;;;;;;;;5.86;100.00;94467.09;5012353;28;20016;-74
2023/04/01 04:58:19;;;;;;;;;;;;;;;5.87;100.00;94467.91;5012284;28;19921;-74
2023/04/01 05:00:45;;;;;;;;;;;;;;;5.93;100.00;94468.38;5011713;28;19929;-75
2023/04/01 05:03:14;;;;;;;;;;;;;;;5.96;100.00;94463.00;5011876;28;20386;-74
2023/04/01 05:05:40;;;;;;;;;;;;;;;5.95;100.00;94461.38;5012308;28;19976;-74
2023/04/01 05:08:07;;;;;;;;;;;;;;;5.96;100.00;94463.00;5012072;28;19941;-74
2023/04/01 05:10:33;;;;;;;;;;;;;;;5.98;100.00;94468.06;5011724;28;19921;-74
2023/04/01 05:12:59;;;;;;;;;;;;;;;6.02;100.00;94462.63;5011559;28;20311;-74
2023/04/01 05:15:26;;;;;;;;;;;;;;;6.03;100.00;94468.59;5011424;28;19921;-74
2023/04/01 05:17:52;;;;;;;;;;;;;;;6.04;100.00;94468.50;5011666;28;19933;-74
2023/04/01 05:20:20;;;;;;;;;;;;;;;6.04;100.00;94465.94;5011637;28;19928;-74
2023/04/01 05:22:46;;;;;;;;;;;;;;;6.06;100.00;94461.50;5011780;28;19921;-74
2023/04/01 05:25:12;;;;;;;;;;;;;;;6.14;100.00;94455.84;5011667;28;19944;-74
2023/04/01 05:27:38;;;;;;;;;;;;;;;6.15;100.00;94444.63;5011628;28;19925;-74
2023/04/01 05:30:06;;;;;;;;;;;;;;;6.09;100.00;94444.25;5011548;28;20289;-74
2023/04/01 05:32:32;;;;;;;;;;;;;;;6.12;100.00;94438.88;5011360;28;20089;-74
2023/04/01 05:34:58;;;;;;;;;;;;;;;6.14;100.00;94435.28;5011251;28;19922;-74
2023/04/01 05:37:26;;;;;;;;;;;;;;;6.12;100.00;94431.16;5011369;28;19929;-74
2023/04/01 05:39:52;;;;;;;;;;;;;;;6.10;100.00;94433.03;5011433;28;19930;-74
2023/04/01 05:42:19;;;;;;;;;;;;;;;6.15;100.00;94447.19;5011568;28;19932;-74
2023/04/01 05:44:45;;;;;;;;;;;;;;;6.13;100.00;94436.22;5011476;28;19922;-74
2023/04/01 05:47:11;;;;;;;;;;;;;;;6.16;100.00;94427.47;5011230;28;19944;-74
2023/04/01 05:49:37;;;;;;;;;;;;;;;6.14;100.00;94424.19;5011287;28;19928;-74
2023/04/01 05:52:04;;;;;;;;;;;;;;;6.13;100.00;94425.94;5010968;28;20664;-76
2023/04/01 05:54:31;;;;;;;;;;;;;;;6.16;100.00;94424.91;5011918;28;19928;-78
2023/04/01 05:56:58;;;;;;;;;;;;;;;6.23;100.00;94426.13;5013853;28;19925;-78
2023/04/01 05:59:24;;;;;;;;;;;;;;;6.21;100.00;94436.53;5014163;28;19929;-78
2023/04/01 06:01:50;;;;;;;;;;;;;;;6.20;100.00;94436.63;5013087;28;19922;-75
2023/04/01 06:04:17;;;;;;;;;;;;;;;6.13;100.00;94438.78;5012972;28;20307;-76
2023/04/01 06:06:44;;;;;;;;;;;;;;;6.04;100.00;94445.38;5012553;28;19936;-79
2023/04/01 06:09:13;;;;;;;;;;;;;;;6.05;100.00;94429.00;5013406;28;19943;-78
2023/04/01 06:11:46;;;;;;;;;;;;;;;6.09;100.00;94441.66;5012729;28;19922;-78
2023/04/01 06:14:20;;;;;;;;;;;;;;;5.98;100.00;94434.66;5014418;28;19922;-78
2023/04/01 06:16:54;;;;;;;;;;;;;;;6.04;100.00;94437.66;5012471;28;20296;-77
2023/04/01 06:19:25;;;;;;;;;;;;;;;6.01;100.00;94432.72;5013117;28;19921;-79
2023/04/01 06:22:00;;;;;;;;;;;;;;;6.00;100.00;94437.94;5014695;28;19936;-77
2023/04/01 06:24:32;;;;;;;;;;;;;;;5.96;100.00;94442.47;5012140;28;19958;-76
2023/04/01 06:27:05;;;;;;;;;;;;;;;5.92;100.00;94443.59;5012535;28;19921;-77
2023/04/01 06:29:45;;;;;;;;;;;;;;;5.97;100.00;94440.72;5012572;28;19926;-76
2023/04/01 06:32:21;;;;;;;;;;;;;;;5.99;100.00;94444.00;5015266;28;19960;-75
2023/04/01 06:34:56;;;;;;;;;;;;;;;5.95;100.00;94443.38;5019372;28;19921;-79
2023/04/01 06:37:38;;;;;;;;;;;;;;;5.95;100.00;94440.81;5022241;28;19921;-79
2023/04/01 06:40:13;;;;;;;;;;;;;;;5.91;100.00;94441.09;5019563;28;20299;-78
2023/04/01 06:42:51;;;;;;;;;;;;;;;5.94;100.00;94448.63;5022472;28;19947;-75
2023/04/01 06:45:28;;;;;;;;;;;;;;;5.91;100.00;94447.06;5015157;28;19921;-76
2023/04/01 06:48:03;;;;;;;;;;;;;;;5.92;100.00;94451.28;5015103;28;20371;-76
2023/04/01 06:50:31;;;;;;;;;;;;;;;5.94;100.00;94446.91;5015087;28;20316;-76
2023/04/01 06:53:03;;;;;;;;;;;;;;;5.90;100.00;94452.31;5007286;28;19963;-76
2023/04/01 06:55:35;;;;;;;;;;;;;;;6.01;100.00;94453.28;5015490;28;20295;-76
2023/04/01 06:58:05;;;;;;;;;;;;;;;5.98;100.00;94450.91;5012749;28;19922;-76
2023/04/01 07:00:33;;;;;;;;;;;;;;;5.98;100.00;94447.50;5015687;28;19929;-76
2023/04/01 07:03:05;;;;;;;;;;;;;;;5.96;100.00;94439.06;5015006;28;20342;-76
2023/04/01 07:05:31;;;;;;;;;;;;;;;5.92;100.00;94440.16;5015238;28;19921;-76
2023/04/01 07:08:00;;;;;;;;;;;;;;;6.03;100.00;94448.84;5014486;28;19922;-76
2023/04/01 07:10:29;;;;;;;;;;;;;;;5.94;100.00;94452.03;5014469;28;19925;-76
2023/04/01 07:12:57;;;;;;;;;;;;;;;5.98;100.00;94445.75;5014611;28;20031;-76
2023/04/01 07:15:25;;;;;;;;;;;;;;;5.91;100.00;94454.75;5014637;28;19922;-76
2023/04/01 07:17:55;;;;;;;;;;;;;;;5.92;100.00;94461.56;5014472;28;20281;-76
2023/04/01 07:20:23;;;;;;;;;;;;;;;5.91;100.00;94459.91;5014172;28;19960;-76
2023/04/01 07:22:51;;;;;;;;;;;;;;;5.99;100.00;94472.28;5014330;28;19921;-76
2023/04/01 07:25:19;;;;;;;;;;;;;;;6.03;100.00;94466.84;5014603;28;20011;-76
2023/04/01 07:27:46;;;;;;;;;;;;;;;6.09;100.00;94469.94;5013741;28;19929;-76
2023/04/01 07:30:14;;;;;;;;;;;;;;;6.04;100.00;94475.34;5014134;28;19921;-76
2023/04/01 07:32:45;;;;;;;;;;;;;;;6.04;100.00;94467.66;5013840;28;20347;-76
2023/04/01 07:35:19;;;;;;;;;;;;;;;6.15;100.00;94475.47;5014451;28;19934;-76
2023/04/01 07:37:51;;;;;;;;;;;;;;;6.21;100.00;94477.66;5009868;28;19925;-76
2023/04/01 07:40:23;;;;;;;;;;;;;;;6.19;100.00;94479.53;5013956;28;19928;-76
2023/04/01 07:43:01;;;;;;;;;;;;;;;6.18;100.00;94479.59;5013281;28;19933;-76
2023/04/01 07:45:31;;;;;;;;;;;;;;;6.23;100.00;94477.53;5013737;28;19921;-76
2023/04/01 07:48:06;;;;;;;;;;;;;;;6.24;100.00;94481.78;5012335;28;19932;-76
2023/04/01 07:50:35;;;;;;;;;;;;;;;6.35;100.00;94489.59;5013494;28;20376;-76
2023/04/01 07:53:09;;;;;;;;;;;;;;;6.41;100.00;94490.94;5013745;28;20277;-76
2023/04/01 07:55:40;;;;;;;;;;;;;;;6.40;100.00;94479.81;5014094;28;19925;-76
2023/04/01 07:58:11;;;;;;;;;;;;;;;6.28;100.00;94491.75;5011795;28;19922;-76
2023/04/01 08:00:42;;;;;;;;;;;;;;;6.33;100.00;94488.88;5013480;28;19925;-76
2023/04/01 08:03:17;;;;;;;;;;;;;;;6.21;100.00;94484.53;5013559;28;19921;-76
2023/04/01 08:05:48;;;;;;;;;;;;;;;6.32;100.00;94494.13;5014054;28;19931;-76
2023/04/01 08:08:19;;;;;;;;;;;;;;;6.40;100.00;94495.25;5013693;28;20384;-76
2023/04/01 08:10:48;;;;;;;;;;;;;;;6.27;100.00;94495.25;5013389;28;19932;-76
2023/04/01 08:13:21;;;;;;;;;;;;;;;6.34;100.00;94492.25;5013306;28;19929;-76
2023/04/01 08:15:53;;;;;;;;;;;;;;;6.40;100.00;94497.81;5013867;28;19922;-76
2023/04/01 08:18:29;;;;;;;;;;;;;;;6.31;100.00;94495.88;5013278;28;19925;-76
2023/04/01 08:20:59;;;;;;;;;;;;;;;6.37;100.00;94499.78;5013216;28;20388;-76
2023/04/01 08:23:27;;;;;;;;;;;;;;;6.32;100.00;94504.41;5013715;28;19925;-76
2023/04/01 08:25:55;;;;;;;;;;;;;;;6.36;100.00;94500.72;5013608;28;19922;-76
2023/04/01 08:28:25;;;;;;;;;;;;;;;6.28;100.00;94501.22;5013135;28;19921;-76
2023/04/01 08:30:53;;;;;;;;;;;;;;;6.24;100.00;94500.59;5013184;28;19928;-76
2023/04/01 08:33:22;;;;;;;;;;;;;;;6.14;100.00;94502.13;5013520;28;19933;-76
2023/04/01 08:35:52;;;;;;;;;;;;;;;6.22;100.00;94504.19;5013053;28;19928;-76
2023/04/01 08:38:20;;;;;;;;;;;;;;;6.26;100.00;94497.91;5010934;28;19925;-76
2023/04/01 08:40:59;;;;;;;;;;;;;;;6.24;100.00;94507.50;5012475;28;20303;-76
2023/04/01 08:43:40;;;;;;;;;;;;;;;6.34;100.00;94505.13;5012637;28;20402;-76
2023/04/01 08:46:18;;;;;;;;;;;;;;;6.42;100.00;94508.84;5012364;28;19927;-76
2023/04/01 08:49:01;;;;;;;;;;;;;;;6.45;100.00;94503.50;5011616;28;19937;-75
2023/04/01 08:51:41;;;;;;;;;;;;;;;6.48;100.00;94503.28;5012339;28;20015;-76
2023/04/01 08:54:25;;;;;;;;;;;;;;;6.52;100.00;94499.56;5007876;28;19928;-76
2023/04/01 08:56:57;;;;;;;;;;;;;;;6.55;100.00;94504.50;5012555;28;19936;-76
2023/04/01 08:59:28;;;;;;;;;;;;;;;6.64;100.00;94502.28;5012235;28;20311;-77
2023/04/01 09:02:15;;;;;;;;;;;;;;;6.70;100.00;94510.38;5012672;28;19931;-77
2023/04/01 09:05:00;;;;;;;;;;;;;;;6.83;100.00;94509.56;5012861;28;20388;-75
2023/04/01 09:07:34;;;;;;;;;;;;;;;6.85;100.00;94505.13;5012860;28;20004;-77
2023/04/01 09:10:21;;;;;;;;;;;;;;;6.90;100.00;94510.78;5012911;28;19925;-77
2023/04/01 09:13:03;;;;;;;;;;;;;;;6.88;100.00;94522.94;5012915;28;19929;-75
2023/04/01 09:15:49;;;;;;;;;;;;;;;6.82;100.00;94518.19;5008376;28;19921;-77
2023/04/01 09:18:34;;;;;;;;;;;;;;;6.78;100.00;94517.56;5009243;28;19925;-77
2023/04/01 09:21:20;;;;;;;;;;;;;;;6.76;100.00;94522.00;5010067;28;19960;-76
2023/04/01 09:24:05;;;;;;;;;;;;;;;6.71;100.00;94524.91;5012633;28;19925;-77
2023/04/01 09:26:40;;;;;;;;;;;;;;;6.77;100.00;94524.47;5009092;28;19921;-76
2023/04/01 09:29:17;;;;;;;;;;;;;;;6.79;100.00;94530.34;5012717;28;19921;-77
2023/04/01 09:31:55;;;;;;;;;;;;;;;6.78;100.00;94522.72;5012507;28;19925;-77
2023/04/01 09:34:53;;;;;;;;;;;;;;;6.90;100.00;94514.19;5009502;28;19928;-77
2023/04/01 09:37:21;;;;;;;;;;;;;;;6.81;100.00;94517.38;5010639;28;19926;-77
2023/04/01 09:39:58;;;;;;;;;;;;;;;6.88;100.00;94530.66;5011309;28;20019;-77
2023/04/01 09:42:42;;;;;;;;;;;;;;;6.87;100.00;94522.09;5012078;28;20009;-77
2023/04/01 09:45:15;;;;;;;;;;;;;;;6.94;100.00;94527.66;5012730;28;19921;-77
2023/04/01 09:47:51;;;;;;;;;;;;;;;6.81;100.00;94521.69;5010897;28;19921;-77
2023/04/01 09:50:31;;;;;;;;;;;;;;;6.78;100.00;94520.13;5012297;28;19921;-77
2023/04/01 09:53:04;;;;;;;;;;;;;;;6.84;100.00;94531.78;5012177;28;20392;-77
2023/04/01 09:55:58;;;;;;;;;;;;;;;6.93;100.00;94534.53;5012240;28;19968;-77
2023/04/01 09:58:48;;;;;;;;;;;;;;;6.91;100.00;94531.25;5007244;28;19921;-77
2023/04/01 10:01:40;;;;;;;;;;;;;;;6.88;100.00;94534.03;4993463;28;19922;-77
2023/04/01 10:04:24;;;;;;;;;;;;;;;6.92;100.00;94535.47;5011484;28;19922;-77
2023/04/01 10:07:09;;;;;;;;;;;;;;;6.86;100.00;94538.47;5014963;28;19921;-77
2023/04/01 10:09:54;;;;;;;;;;;;;;;6.97;100.00;94541.16;5015927;28;20304;-76
2023/04/01 10:12:32;;;;;;;;;;;;;;;7.00;100.00;94540.09;5016212;28;20000;-77
2023/04/01 10:15:13;;;;;;;;;;;;;;;7.19;100.00;94544.81;5016408;28;19943;-77
2023/04/01 10:18:00;;;;;;;;;;;;;;;7.32;100.00;94537.88;5016126;28;19925;-76
2023/04/01 10:20:48;;;;;;;;;;;;;;;7.44;100.00;94551.66;4994181;28;19933;-76
2023/04/01 10:23:21;;;;;;;;;;;;;;;7.49;100.00;94534.97;5015858;28;19940;-77
2023/04/01 10:26:13;;;;;;;;;;;;;;;7.54;100.00;94537.22;5015906;28;19926;-77
2023/04/01 10:29:08;;;;;;;;;;;;;;;7.63;100.00;94540.88;5014782;28;19925;-76
2023/04/01 10:31:58;;;;;;;;;;;;;;;7.61;100.00;94542.75;5012519;28;19925;-77
2023/04/01 10:34:40;;;;;;;;;;;;;;;7.46;100.00;94545.47;5014772;28;19925;-76
2023/04/01 10:37:16;;;;;;;;;;;;;;;7.41;100.00;94537.22;5012597;28;19944;-77
2023/04/01 10:40:07;;;;;;;;;;;;;;;7.47;100.00;94547.13;5015734;28;19928;-77
2023/04/01 10:42:48;;;;;;;;;;;;;;;7.46;100.00;94540.31;5012814;28;19925;-77
2023/04/01 10:45:25;;;;;;;;;;;;;;;7.61;100.00;94532.44;5015510;28;20384;-77
2023/04/01 10:48:10;;;;;;;;;;;;;;;7.68;100.00;94536.25;5014875;28;20392;-77
2023/04/01 10:50:45;;;;;;;;;;;;;;;7.61;100.00;94538.44;5014864;28;19921;-77
2023/04/01 10:53:30;;;;;;;;;;;;;;;7.55;100.00;94541.41;5015051;28;19921;-77
2023/04/01 10:56:16;;;;;;;;;;;;;;;7.54;100.00;94554.44;4994565;28;20441;-77
2023/04/01 10:58:54;;;;;;;;;;;;;;;7.62;100.00;94545.22;5014313;28;19921;-77
2023/04/01 11:01:28;;;;;;;;;;;;;;;7.92;100.00;94544.78;5015121;28;19930;-77
2023/04/01 11:04:13;;;;;;;;;;;;;;;8.14;100.00;94551.78;5015262;28;19925;-77
2023/04/01 11:07:09;;;;;;;;;;;;;;;8.12;100.00;94550.25;5013383;28;20307;-76
2023/04/01 11:10:05;;;;;;;;;;;;;;;8.21;100.00;94552.19;5014406;28;20020;-76
2023/04/01 11:12:52;;;;;;;;;;;;;;;8.38;100.00;94553.53;5016373;28;20368;-77
2023/04/01 11:15:28;;;;;;;;;;;;;;;8.31;100.00;94552.34;5012190;28;19925;-73
2023/04/01 11:18:09;;;;;;;;;;;;;;;8.32;100.00;94553.97;5016210;28;19921;-79
2023/04/01 11:20:43;;;;;;;;;;;;;;;8.20;100.00;94555.69;5013317;28;19928;-77
2023/04/01 11:23:18;;;;;;;;;;;;;;;8.33;100.00;94555.59;5015036;28;20384;-76
2023/04/01 11:25:52;;;;;;;;;;;;;;;8.30;100.00;94566.16;5016363;28;19925;-78
2023/04/01 11:28:26;;;;;;;;;;;;;;;8.20;100.00;94558.28;5015122;28;19925;-79
2023/04/01 11:31:00;;;;;;;;;;;;;;;8.34;100.00;94557.25;5015418;28;19928;-78
2023/04/01 11:33:29;;;;;;;;;;;;;;;8.32;100.00;94559.94;5015791;28;19922;-78
2023/04/01 11:36:07;;;;;;;;;;;;;;;8.28;100.00;94562.88;5015868;28;19921;-77
2023/04/01 11:38:50;;;;;;;;;;;;;;;8.34;100.00;94558.06;5015373;28;20482;-77
2023/04/01 11:41:23;;;;;;;;;;;;;;;8.32;100.00;94569.44;5015046;28;19933;-78
2023/04/01 11:43:58;;;;;;;;;;;;;;;8.32;100.00;94567.69;5009667;28;20304;-78
2023/04/01 11:46:29;;;;;;;;;;;;;;;8.41;100.00;94576.53;5016010;28;19932;-78
2023/04/01 11:48:59;;;;;;;;;;;;;;;8.26;100.00;94573.28;5015278;28;19940;-78
2023/04/01 11:51:45;;;;;;;;;;;;;;;8.28;100.00;94570.63;5015672;28;19929;-80
2023/04/01 11:54:21;;;;;;;;;;;;;;;8.40;100.00;94569.75;5012706;28;19928;-78
2023/04/01 11:56:56;;;;;;;;;;;;;;;8.43;100.00;94577.25;5013837;28;19921;-77
2023/04/01 11:59:35;;;;;;;;;;;;;;;8.36;100.00;94582.00;5015593;28;19921;-78
2023/04/01 12:02:09;;;;;;;;;;;;;;;8.30;100.00;94579.88;5014547;28;20015;-78
2023/04/01 12:04:59;;;;;;;;;;;;;;;8.11;100.00;94577.78;5015688;28;19921;-78
2023/04/01 12:07:35;;;;;;;;;;;;;;;8.11;100.00;94582.97;5010523;28;19928;-78
2023/04/01 12:10:06;;;;;;;;;;;;;;;7.91;100.00;94566.34;5015729;28;19922;-78
2023/04/01 12:12:40;;;;;;;;;;;;;;;7.91;100.00;94576.66;5014088;28;20652;-77
2023/04/01 12:15:16;;;;;;;;;;;;;;;7.87;100.00;94585.53;5011741;28;20036;-76
2023/04/01 12:17:49;;;;;;;;;;;;;;;7.82;100.00;94586.78;5015355;28;20292;-77
2023/04/01 12:20:24;;;;;;;;;;;;;;;7.98;100.00;94590.75;5012524;28;20439;-76
2023/04/01 12:22:54;;;;;;;;;;;;;;;8.14;100.00;94580.16;5012102;28;20015;-75
2023/04/01 12:25:28;;;;;;;;;;;;;;;8.18;100.00;94589.31;5011785;28;19921;-77
2023/04/01 12:28:00;;;;;;;;;;;;;;;8.28;100.00;94597.22;5012227;28;19925;-77
2023/04/01 12:30:34;;;;;;;;;;;;;;;8.33;100.00;94596.88;5012592;28;19964;-77
2023/04/01 12:33:20;;;;;;;;;;;;;;;8.45;100.00;94598.59;5012489;28;19925;-77
2023/04/01 12:35:55;;;;;;;;;;;;;;;8.49;100.00;94594.84;5011444;28;19929;-77
2023/04/01 12:38:25;;;;;;;;;;;;;;;8.34;100.00;94603.69;5013299;28;19929;-75
2023/04/01 12:40:57;;;;;;;;;;;;;;;8.13;100.00;94593.19;5013057;28;19921;-76
2023/04/01 12:43:41;;;;;;;;;;;;;;;8.07;100.00;94596.19;5011922;28;19928;-77
2023/04/01 12:46:14;;;;;;;;;;;;;;;8.12;100.00;94597.53;5013296;28;20408;-77
2023/04/01 12:49:01;;;;;;;;;;;;;;;8.17;100.00;94602.34;5012691;28;19926;-75
2023/04/01 12:51:51;;;;;;;;;;;;;;;8.07;100.00;94597.00;4987872;28;19928;-77
2023/04/01 12:54:35;;;;;;;;;;;;;;;8.00;100.00;94609.50;4995683;28;19948;-76
2023/04/01 12:57:11;;;;;;;;;;;;;;;8.17;100.00;94602.34;5011679;28;19928;-77
2023/04/01 12:59:44;;;;;;;;;;;;;;;8.12;100.00;94600.09;5011803;28;19926;-77
2023/04/01 13:02:21;;;;;;;;;;;;;;;8.21;100.00;94614.06;5011840;28;20331;-75
2023/04/01 13:04:55;;;;;;;;;;;;;;;8.30;100.00;94608.25;5011829;28;19925;-77
2023/04/01 13:07:33;;;;;;;;;;;;;;;8.18;100.00;94609.13;5011689;28;19921;-76
2023/04/01 13:10:07;;;;;;;;;;;;;;;8.32;100.00;94615.88;5009791;28;19925;-76
2023/04/01 13:12:53;;;;;;;;;;;;;;;8.21;100.00;94616.66;5017402;28;19944;-77
2023/04/01 13:15:36;;;;;;;;;;;;;;;7.94;100.00;94617.69;5019002;28;20305;-75